Time;durP1;ratioP1;P1;durP2;ratioP2;P2;SDS_P1;SDS_P2;PMS_P1;PMS_P2;Temp;Humidity;BMP_temperature;BMP_pressure;BME280_temperature;BME280_humidity;BME280_pressure;Samples;Min_cycle;Max_cycle;Signal;HPM_P1;HPM_P2
2022/06/21 00:01:48;;;;;;;4.00;2.50;;;;;;;;;;5025041;28;20508;-44
2022/06/21 00:04:14;;;;;;;4.18;2.22;;;;;;;;;;5024249;28;20053;-45
2022/06/21 00:06:39;;;;;;;3.88;2.30;;;;;;;;;;5025182;28;20026;-44
2022/06/21 00:09:05;;;;;;;3.83;2.25;;;;;;;;;;5020584;28;20033;-45
2022/06/21 00:11:34;;;;;;;8.52;3.22;;;;;;;;;;5027028;28;20026;-44
2022/06/21 00:14:00;;;;;;;5.03;2.50;;;;;;;;;;5038798;28;20025;-43
2022/06/21 00:16:29;;;;;;;3.28;2.20;;;;;;;;;;5025152;28;20052;-43
2022/06/21 00:18:55;;;;;;;4.07;2.08;;;;;;;;;;5026432;28;20059;-44
2022/06/21 00:21:24;;;;;;;7.28;2.35;;;;;;;;;;5024915;28;20037;-43
2022/06/21 00:23:52;;;;;;;8.63;2.60;;;;;;;;;;5029432;28;20442;-47
2022/06/21 00:26:21;;;;;;;6.70;2.35;;;;;;;;;;5031721;28;20117;-44
2022/06/21 00:28:47;;;;;;;9.48;2.83;;;;;;;;;;5033650;28;20035;-44
2022/06/21 00:31:27;;;;;;;7.22;2.53;;;;;;;;;;5025291;28;20030;-43
2022/06/21 00:33:53;;;;;;;6.28;2.17;;;;;;;;;;5024243;28;20022;-44
2022/06/21 00:36:25;;;;;;;6.43;2.40;;;;;;;;;;5025906;28;20108;-45
2022/06/21 00:38:53;;;;;;;4.22;2.10;;;;;;;;;;5023219;28;20108;-43
2022/06/21 00:41:32;;;;;;;9.50;2.55;;;;;;;;;;5032856;28;20405;-43
2022/06/21 00:44:02;;;;;;;6.70;2.38;;;;;;;;;;5036977;28;20438;-43
2022/06/21 00:46:49;;;;;;;4.15;2.40;;;;;;;;;;5031538;28;20090;-42
2022/06/21 00:49:25;;;;;;;5.28;3.13;;;;;;;;;;5020672;28;20390;-44
2022/06/21 00:51:57;;;;;;;5.72;2.35;;;;;;;;;;5028815;28;20032;-43
2022/06/21 00:54:33;;;;;;;4.68;2.30;;;;;;;;;;5033326;28;20064;-45
2022/06/21 00:57:29;;;;;;;3.45;2.35;;;;;;;;;;5030647;28;20029;-45
2022/06/21 00:59:58;;;;;;;3.05;2.13;;;;;;;;;;5022404;28;20053;-44
2022/06/21 01:02:32;;;;;;;5.18;2.80;;;;;;;;;;5030704;28;20025;-43
2022/06/21 01:04:59;;;;;;;10.52;2.63;;;;;;;;;;5032860;28;20029;-46
2022/06/21 01:07:25;;;;;;;4.57;2.63;;;;;;;;;;5031567;28;20025;-44
2022/06/21 01:10:08;;;;;;;3.10;2.35;;;;;;;;;;5030708;28;20083;-43
2022/06/21 01:12:48;;;;;;;3.25;2.15;;;;;;;;;;5032800;28;20045;-44
2022/06/21 01:15:18;;;;;;;2.85;2.45;;;;;;;;;;5025967;28;20675;-43
2022/06/21 01:17:46;;;;;;;8.23;2.50;;;;;;;;;;5023414;28;20483;-43
2022/06/21 01:20:15;;;;;;;5.28;2.75;;;;;;;;;;5024948;28;20036;-44
2022/06/21 01:22:51;;;;;;;6.00;2.20;;;;;;;;;;5030342;28;20029;-43
2022/06/21 01:25:17;;;;;;;4.88;2.40;;;;;;;;;;5023739;28;20115;-44
2022/06/21 01:27:43;;;;;;;5.13;2.30;;;;;;;;;;5030526;28;20057;-44
2022/06/21 01:30:09;;;;;;;10.00;2.47;;;;;;;;;;5026293;28;20036;-43
2022/06/21 01:32:35;;;;;;;4.55;2.65;;;;;;;;;;5029192;28;20037;-45
2022/06/21 01:35:10;;;;;;;5.53;2.45;;;;;;;;;;5033246;28;20029;-43
2022/06/21 01:37:36;;;;;;;7.18;2.83;;;;;;;;;;5034571;28;20431;-44
2022/06/21 01:40:19;;;;;;;9.27;3.10;;;;;;;;;;5021677;28;20474;-43
2022/06/21 01:42:49;;;;;;;6.10;2.38;;;;;;;;;;5031300;28;20406;-43
2022/06/21 01:45:31;;;;;;;3.65;2.45;;;;;;;;;;5033441;28;20469;-43
2022/06/21 01:48:07;;;;;;;2.47;2.28;;;;;;;;;;5030159;28;20049;-45
2022/06/21 01:50:35;;;;;;;5.97;2.80;;;;;;;;;;5028781;28;20503;-44
2022/06/21 01:53:02;;;;;;;14.43;2.97;;;;;;;;;;5033145;28;20107;-43
2022/06/21 01:55:46;;;;;;;6.70;2.67;;;;;;;;;;5032875;28;20057;-44
2022/06/21 01:58:24;;;;;;;8.10;2.80;;;;;;;;;;5026096;28;20065;-44
2022/06/21 02:00:58;;;;;;;8.23;2.63;;;;;;;;;;5024428;28;20103;-44
2022/06/21 02:03:32;;;;;;;4.10;2.90;;;;;;;;;;5031147;28;20032;-44
2022/06/21 02:06:04;;;;;;;4.80;2.85;;;;;;;;;;5029925;28;20037;-43
2022/06/21 02:08:42;;;;;;;4.78;2.97;;;;;;;;;;5029331;28;20502;-44
2022/06/21 02:11:14;;;;;;;4.55;2.70;;;;;;;;;;5029505;28;21535;-42
2022/06/21 02:17:04;;;;;;;3.75;2.83;;;;;;;;;;5030643;28;20063;-43
2022/06/21 02:19:38;;;;;;;6.78;2.70;;;;;;;;;;5029176;28;20088;-44
2022/06/21 02:22:05;;;;;;;8.68;2.72;;;;;;;;;;5029918;28;20029;-44
2022/06/21 02:24:32;;;;;;;7.78;2.95;;;;;;;;;;5023736;28;20036;-44
2022/06/21 02:26:59;;;;;;;7.93;2.70;;;;;;;;;;5031775;28;20064;-43
2022/06/21 02:29:26;;;;;;;4.30;2.83;;;;;;;;;;5027455;28;20492;-43
2022/06/21 02:31:52;;;;;;;7.05;2.80;;;;;;;;;;5028712;28;20060;-44
2022/06/21 02:34:28;;;;;;;2.97;2.60;;;;;;;;;;5031754;28;20056;-43
2022/06/21 02:36:57;;;;;;;5.03;2.70;;;;;;;;;;5033101;28;20555;-43
2022/06/21 02:39:26;;;;;;;3.03;2.47;;;;;;;;;;5032598;28;20032;-43
2022/06/21 02:41:57;;;;;;;4.60;2.58;;;;;;;;;;5030367;28;20030;-43
2022/06/21 02:44:30;;;;;;;4.13;2.70;;;;;;;;;;5029085;28;20025;-43
2022/06/21 02:47:04;;;;;;;6.60;2.78;;;;;;;;;;5030101;28;20072;-43
2022/06/21 02:49:36;;;;;;;4.65;2.95;;;;;;;;;;5026087;28;20030;-43
2022/06/21 02:52:14;;;;;;;2.75;2.42;;;;;;;;;;5025988;28;20061;-43
2022/06/21 02:55:06;;;;;;;4.15;2.67;;;;;;;;;;5029813;28;20771;-44
2022/06/21 02:57:43;;;;;;;4.88;2.67;;;;;;;;;;5026451;28;20038;-44
2022/06/21 03:00:18;;;;;;;9.85;3.28;;;;;;;;;;5027427;28;20388;-45
2022/06/21 03:02:44;;;;;;;5.55;2.67;;;;;;;;;;5029883;28;20022;-43
2022/06/21 03:05:16;;;;;;;4.53;2.65;;;;;;;;;;5031078;28;20394;-43
2022/06/21 03:07:47;;;;;;;3.53;2.60;;;;;;;;;;5028469;28;20115;-44
2022/06/21 03:10:21;;;;;;;4.50;2.65;;;;;;;;;;5029749;28;20037;-43
2022/06/21 03:12:50;;;;;;;5.47;2.47;;;;;;;;;;5032958;28;20029;-43
2022/06/21 03:15:16;;;;;;;6.05;2.80;;;;;;;;;;5028899;28;20040;-43
2022/06/21 03:17:52;;;;;;;6.88;2.67;;;;;;;;;;5028738;28;20045;-43
2022/06/21 03:20:19;;;;;;;7.68;2.80;;;;;;;;;;5028326;28;20048;-45
2022/06/21 03:22:47;;;;;;;4.65;2.47;;;;;;;;;;5029715;28;20035;-43
2022/06/21 03:25:23;;;;;;;7.05;2.83;;;;;;;;;;5029801;28;20033;-43
2022/06/21 03:27:55;;;;;;;4.13;2.80;;;;;;;;;;5024184;28;20148;-46
2022/06/21 03:30:25;;;;;;;3.17;2.40;;;;;;;;;;5020393;28;20728;-43
2022/06/21 03:32:54;;;;;;;3.15;2.60;;;;;;;;;;5027405;28;20060;-44
2022/06/21 03:35:20;;;;;;;5.90;2.63;;;;;;;;;;5033750;28;20476;-43
2022/06/21 03:37:47;;;;;;;5.03;2.45;;;;;;;;;;5030198;28;20493;-43
2022/06/21 03:43:09;;;;;;;12.73;2.60;;;;;;;;;;5026760;28;20025;-44
2022/06/21 03:45:40;;;;;;;5.63;2.20;;;;;;;;;;5023488;28;20028;-43
2022/06/21 03:48:36;;;;;;;4.57;2.45;;;;;;;;;;5032273;28;20124;-43
2022/06/21 03:51:11;;;;;;;5.00;2.20;;;;;;;;;;5022394;28;20069;-45
2022/06/21 03:53:48;;;;;;;3.88;2.33;;;;;;;;;;5027627;28;20490;-46
2022/06/21 03:56:25;;;;;;;5.45;2.50;;;;;;;;;;5030113;28;20052;-44
2022/06/21 03:59:14;;;;;;;7.18;2.50;;;;;;;;;;5033563;28;20053;-44
2022/06/21 04:01:43;;;;;;;6.55;2.55;;;;;;;;;;5030232;28;20394;-43
2022/06/21 04:04:31;;;;;;;8.35;2.90;;;;;;;;;;5025213;28;20029;-43
2022/06/21 04:07:06;;;;;;;6.90;2.63;;;;;;;;;;5026549;28;20540;-43
2022/06/21 04:09:49;;;;;;;4.95;2.60;;;;;;;;;;5027493;28;20069;-44
2022/06/21 04:12:28;;;;;;;3.88;2.72;;;;;;;;;;5022513;28;20085;-44
2022/06/21 04:15:13;;;;;;;8.07;2.85;;;;;;;;;;5025312;28;20034;-44
2022/06/21 04:17:59;;;;;;;5.32;2.42;;;;;;;;;;5032943;28;20115;-44
2022/06/21 04:20:36;;;;;;;11.35;2.40;;;;;;;;;;5030525;28;20577;-43
2022/06/21 04:23:10;;;;;;;2.85;2.35;;;;;;;;;;5034122;28;20036;-44
2022/06/21 04:25:43;;;;;;;2.83;2.20;;;;;;;;;;5032431;28;20052;-43
2022/06/21 04:28:29;;;;;;;3.08;2.17;;;;;;;;;;5024705;28;20060;-44
2022/06/21 04:31:04;;;;;;;5.65;2.60;;;;;;;;;;5027741;28;20040;-43
2022/06/21 04:33:29;;;;;;;7.90;2.42;;;;;;;;;;5030551;28;20069;-43
2022/06/21 04:36:43;;;;;;;5.88;2.65;;;;;;;;;;5030131;28;20069;-44
2022/06/21 04:39:19;;;;;;;4.68;2.97;;;;;;;;;;5010738;28;20109;-42
2022/06/21 04:41:57;;;;;;;3.50;2.22;;;;;;;;;;5013018;28;20037;-43
2022/06/21 04:44:30;;;;;;;5.35;2.25;;;;;;;;;;5011572;28;20088;-43
2022/06/21 04:47:23;;;;;;;10.95;2.60;;;;;;;;;;5013231;28;20038;-43
2022/06/21 04:50:00;;;;;;;9.82;2.40;;;;;;;;;;4956718;28;20039;-42
2022/06/21 04:52:41;;;;;;;7.57;2.70;;;;;;;;;;4954479;28;20510;-46
2022/06/21 04:55:14;;;;;;;3.85;2.47;;;;;;;;;;4952289;28;20051;-43
2022/06/21 04:57:39;;;;;;;6.05;2.17;;;;;;;;;;4952070;28;20598;-43
2022/06/21 05:00:15;;;;;;;7.20;2.83;;;;;;;;;;4953235;28;20042;-43
2022/06/21 05:02:46;;;;;;;4.72;2.28;;;;;;;;;;4950321;28;20095;-43
2022/06/21 05:05:17;;;;;;;2.53;2.00;;;;;;;;;;4950607;28;20597;-43
2022/06/21 05:07:59;;;;;;;4.93;2.85;;;;;;;;;;4955398;28;20105;-43
2022/06/21 05:10:33;;;;;;;8.50;2.83;;;;;;;;;;4953691;28;20039;-44
2022/06/21 05:13:03;;;;;;;7.47;2.78;;;;;;;;;;4951881;28;20447;-43
2022/06/21 05:15:36;;;;;;;4.82;2.35;;;;;;;;;;4976933;28;20112;-44
2022/06/21 05:18:10;;;;;;;4.80;2.35;;;;;;;;;;4986665;28;20439;-44
2022/06/21 05:20:39;;;;;;;4.15;2.70;;;;;;;;;;4988787;28;20046;-44
2022/06/21 05:23:07;;;;;;;14.70;2.50;;;;;;;;;;4992218;28;20553;-46
2022/06/21 05:25:36;;;;;;;7.47;2.60;;;;;;;;;;4985480;28;20038;-43
2022/06/21 05:28:02;;;;;;;5.38;2.17;;;;;;;;;;5028160;28;20032;-44
2022/06/21 05:30:51;;;;;;;2.47;2.28;;;;;;;;;;5016856;28;20029;-44
2022/06/21 05:33:19;;;;;;;3.38;2.30;;;;;;;;;;5013474;28;20034;-44
2022/06/21 05:35:46;;;;;;;3.58;2.20;;;;;;;;;;5015613;28;20368;-43
2022/06/21 05:38:19;;;;;;;7.18;2.72;;;;;;;;;;5018633;28;20026;-44
2022/06/21 05:40:53;;;;;;;4.93;2.22;;;;;;;;;;5029657;28;20037;-43
2022/06/21 05:43:24;;;;;;;5.35;2.40;;;;;;;;;;5020988;28;20391;-44
2022/06/21 05:45:55;;;;;;;4.05;2.05;;;;;;;;;;5018837;28;20035;-43
2022/06/21 05:48:23;;;;;;;9.93;2.83;;;;;;;;;;5027997;28;20051;-45
2022/06/21 05:50:50;;;;;;;7.32;2.35;;;;;;;;;;5020745;28;20120;-44
2022/06/21 05:53:26;;;;;;;3.20;1.92;;;;;;;;;;5032660;28;20030;-44
2022/06/21 05:55:52;;;;;;;8.15;2.55;;;;;;;;;;5032585;28;20049;-43
2022/06/21 05:58:24;;;;;;;3.40;2.72;;;;;;;;;;5029443;28;20084;-43
2022/06/21 06:01:03;;;;;;;3.28;2.58;;;;;;;;;;5020609;28;20653;-44
2022/06/21 06:03:53;;;;;;;14.48;2.72;;;;;;;;;;5035316;28;20077;-43
2022/06/21 06:06:20;;;;;;;2.53;2.33;;;;;;;;;;5034530;28;20548;-43
2022/06/21 06:08:51;;;;;;;11.70;2.85;;;;;;;;;;5027963;28;20486;-44
2022/06/21 06:12:03;;;;;;;7.78;2.60;;;;;;;;;;5013951;28;20040;-43
2022/06/21 06:14:47;;;;;;;10.40;2.53;;;;;;;;;;5022624;28;20053;-44
2022/06/21 06:17:34;;;;;;;9.05;2.83;;;;;;;;;;5024762;28;20072;-44
2022/06/21 06:20:04;;;;;;;7.22;2.78;;;;;;;;;;5026368;28;20095;-44
2022/06/21 06:22:41;;;;;;;6.20;2.75;;;;;;;;;;5020626;28;20037;-44
2022/06/21 06:25:32;;;;;;;9.05;2.97;;;;;;;;;;5012310;28;20034;-44
2022/06/21 06:28:16;;;;;;;16.02;2.42;;;;;;;;;;5021084;28;20029;-44
2022/06/21 06:30:51;;;;;;;4.97;2.53;;;;;;;;;;5019102;28;20036;-43
2022/06/21 06:33:31;;;;;;;7.85;2.72;;;;;;;;;;5025890;28;20387;-44
2022/06/21 06:36:04;;;;;;;5.88;2.50;;;;;;;;;;5019980;28;20038;-46
2022/06/21 06:38:30;;;;;;;8.77;2.60;;;;;;;;;;5019763;28;20033;-44
2022/06/21 06:41:05;;;;;;;11.23;2.45;;;;;;;;;;5017714;28;20120;-43
2022/06/21 06:44:06;;;;;;;2.97;2.67;;;;;;;;;;5020911;28;20033;-44
2022/06/21 06:46:38;;;;;;;10.85;3.67;;;;;;;;;;5019280;28;20045;-44
2022/06/21 06:49:15;;;;;;;8.10;2.72;;;;;;;;;;5026335;28;20033;-44
2022/06/21 06:51:43;;;;;;;11.85;3.20;;;;;;;;;;5011475;28;20045;-44
2022/06/21 06:54:19;;;;;;;20.38;3.03;;;;;;;;;;5022943;28;20041;-44
2022/06/21 06:57:09;;;;;;;11.35;3.30;;;;;;;;;;5015443;28;20041;-45
2022/06/21 06:59:36;;;;;;;12.57;3.20;;;;;;;;;;5024508;28;20069;-44
2022/06/21 07:02:17;;;;;;;9.75;3.25;;;;;;;;;;5026972;28;20065;-44
2022/06/21 07:04:45;;;;;;;18.33;4.22;;;;;;;;;;5029371;28;20088;-43
2022/06/21 07:07:24;;;;;;;12.60;3.50;;;;;;;;;;5021819;28;20029;-44
2022/06/21 07:09:54;;;;;;;8.90;3.28;;;;;;;;;;5031418;28;20036;-42
2022/06/21 07:12:29;;;;;;;10.90;3.13;;;;;;;;;;5025508;28;20100;-44
2022/06/21 07:14:56;;;;;;;11.88;3.20;;;;;;;;;;5027383;28;20071;-45
2022/06/21 07:17:40;;;;;;;14.30;3.45;;;;;;;;;;5025882;28;20022;-50
2022/06/21 07:20:17;;;;;;;15.88;3.45;;;;;;;;;;5033516;28;20032;-44
2022/06/21 07:22:43;;;;;;;12.88;3.47;;;;;;;;;;5018015;28;20037;-44
2022/06/21 07:25:33;;;;;;;9.05;3.13;;;;;;;;;;5029193;28;20116;-44
2022/06/21 07:28:08;;;;;;;9.45;3.08;;;;;;;;;;5026602;28;20473;-43
2022/06/21 07:30:39;;;;;;;14.20;3.42;;;;;;;;;;5031432;28;20482;-43
2022/06/21 07:33:12;;;;;;;11.07;3.60;;;;;;;;;;5028924;28;20029;-46
2022/06/21 07:35:47;;;;;;;15.25;3.53;;;;;;;;;;5025304;28;20123;-44
2022/06/21 07:38:39;;;;;;;10.88;3.60;;;;;;;;;;5024081;28;20028;-44
2022/06/21 07:41:20;;;;;;;9.82;2.92;;;;;;;;;;5028063;28;20025;-44
2022/06/21 07:43:49;;;;;;;7.82;3.38;;;;;;;;;;5025354;28;20056;-44
2022/06/21 07:46:24;;;;;;;23.05;3.47;;;;;;;;;;5028304;28;20903;-43
2022/06/21 07:49:09;;;;;;;17.33;3.33;;;;;;;;;;5030419;28;20033;-47
2022/06/21 07:51:41;;;;;;;7.95;3.15;;;;;;;;;;5029735;28;20628;-44
2022/06/21 07:54:10;;;;;;;8.20;3.15;;;;;;;;;;5029904;28;20210;-43
2022/06/21 07:56:44;;;;;;;17.08;3.53;;;;;;;;;;5025651;28;20037;-44
2022/06/21 07:59:36;;;;;;;17.23;3.45;;;;;;;;;;5029973;28;20616;-45
2022/06/21 08:08:07;;;;;;;17.13;4.13;;;;;;;;;;5033515;28;20048;-44
2022/06/21 08:10:38;;;;;;;11.45;3.40;;;;;;;;;;5036773;28;20036;-44
2022/06/21 08:13:04;;;;;;;18.63;3.90;;;;;;;;;;5035431;28;20029;-45
2022/06/21 08:15:37;;;;;;;14.40;3.50;;;;;;;;;;5026146;28;20041;-43
2022/06/21 08:18:13;;;;;;;21.00;3.90;;;;;;;;;;5031421;28;20030;-44
2022/06/21 08:20:46;;;;;;;15.25;3.65;;;;;;;;;;5029847;28;20032;-44
2022/06/21 08:23:52;;;;;;;13.30;4.18;;;;;;;;;;5032187;28;20064;-44
2022/06/21 08:26:25;;;;;;;15.60;4.05;;;;;;;;;;5032741;28;20410;-44
2022/06/21 08:28:59;;;;;;;10.00;4.00;;;;;;;;;;5033968;28;20117;-44
2022/06/21 08:31:41;;;;;;;11.40;3.90;;;;;;;;;;5034296;28;20040;-43
2022/06/21 08:34:09;;;;;;;;;;;;;;;;;;5035120;28;20106;-46
2022/06/21 08:36:44;;;;;;;8.65;3.75;;;;;;;;;;5029633;28;20073;-45
2022/06/21 08:39:22;;;;;;;19.52;4.10;;;;;;;;;;5028768;28;20094;-45
2022/06/21 08:41:57;;;;;;;15.20;4.20;;;;;;;;;;5032953;28;20025;-45
2022/06/21 08:44:41;;;;;;;20.75;3.88;;;;;;;;;;5032266;28;20482;-45
2022/06/21 08:47:32;;;;;;;18.50;4.05;;;;;;;;;;5037067;28;20033;-43
2022/06/21 08:50:22;;;;;;;18.95;3.20;;;;;;;;;;5035497;28;20130;-45
2022/06/21 08:53:03;;;;;;;15.75;3.40;;;;;;;;;;5036991;28;20037;-45
2022/06/21 08:56:04;;;;;;;12.07;3.70;;;;;;;;;;5029364;28;20054;-44
2022/06/21 08:58:38;;;;;;;6.07;3.37;;;;;;;;;;4993999;28;20070;-45
2022/06/21 09:01:12;;;;;;;14.98;3.67;;;;;;;;;;4993034;28;20514;-44
2022/06/21 09:04:14;;;;;;;15.35;3.90;;;;;;;;;;4988762;28;20046;-44
2022/06/21 09:06:53;;;;;;;15.30;3.53;;;;;;;;;;4995025;28;20035;-44
2022/06/21 09:09:51;;;;;;;11.30;3.90;;;;;;;;;;4994081;28;20042;-44
2022/06/21 09:12:55;;;;;;;9.65;3.47;;;;;;;;;;4913531;29;20517;-43
2022/06/21 09:15:33;;;;;;;8.38;4.10;;;;;;;;;;4914864;29;20036;-44
2022/06/21 09:18:13;;;;;;;11.10;3.47;;;;;;;;;;4913343;29;20028;-45
2022/06/21 09:20:49;;;;;;;11.30;4.28;;;;;;;;;;4911465;29;20580;-45
2022/06/21 09:23:28;;;;;;;16.88;4.18;;;;;;;;;;4917436;29;20036;-44
2022/06/21 09:26:12;;;;;;;12.25;4.25;;;;;;;;;;4917293;29;20127;-44
2022/06/21 09:28:43;;;;;;;8.20;3.90;;;;;;;;;;4914756;29;20087;-48
2022/06/21 09:31:51;;;;;;;8.20;3.63;;;;;;;;;;4916579;29;20439;-45
2022/06/21 09:34:48;;;;;;;14.43;4.63;;;;;;;;;;4923445;28;20139;-45
2022/06/21 09:37:31;;;;;;;12.07;3.88;;;;;;;;;;4950217;28;20093;-44
2022/06/21 09:40:21;;;;;;;10.95;4.05;;;;;;;;;;4946997;28;20062;-44
2022/06/21 09:42:59;;;;;;;14.38;4.15;;;;;;;;;;4949110;28;20399;-44
2022/06/21 09:45:34;;;;;;;7.05;3.55;;;;;;;;;;4950256;28;21700;-43
2022/06/21 09:48:08;;;;;;;13.05;3.92;;;;;;;;;;4992587;28;20399;-44
2022/06/21 09:50:46;;;;;;;9.82;3.53;;;;;;;;;;5028506;28;20501;-44
2022/06/21 09:53:31;;;;;;;11.98;4.05;;;;;;;;;;5032459;28;20079;-44
2022/06/21 09:56:14;;;;;;;18.80;4.20;;;;;;;;;;5027641;28;20049;-44
2022/06/21 09:58:51;;;;;;;11.40;4.28;;;;;;;;;;5031927;28;20037;-43
2022/06/21 10:01:37;;;;;;;18.48;4.30;;;;;;;;;;5027591;28;20064;-44
2022/06/21 10:04:36;;;;;;;16.33;4.68;;;;;;;;;;5030595;28;20025;-46
2022/06/21 10:07:41;;;;;;;13.50;4.07;;;;;;;;;;5028498;28;20059;-44
2022/06/21 10:10:32;;;;;;;23.48;4.10;;;;;;;;;;5032784;28;20065;-43
2022/06/21 10:13:07;;;;;;;19.58;5.60;;;;;;;;;;5024166;28;20060;-44
2022/06/21 10:15:39;;;;;;;12.48;3.83;;;;;;;;;;5030792;28;20108;-43
2022/06/21 10:18:37;;;;;;;14.27;4.13;;;;;;;;;;5030361;28;20037;-44
2022/06/21 10:21:05;;;;;;;17.20;4.10;;;;;;;;;;5027980;28;20026;-44
2022/06/21 10:24:14;;;;;;;12.32;4.20;;;;;;;;;;5030968;28;20104;-44
2022/06/21 10:27:01;;;;;;;18.00;4.68;;;;;;;;;;5030312;28;20028;-45
2022/06/21 10:29:44;;;;;;;19.50;4.40;;;;;;;;;;5025893;28;20049;-44
2022/06/21 10:32:31;;;;;;;11.05;3.70;;;;;;;;;;5031185;28;20492;-44
2022/06/21 10:35:26;;;;;;;10.25;3.95;;;;;;;;;;5025602;28;20062;-44
2022/06/21 10:38:02;;;;;;;19.17;4.68;;;;;;;;;;5030840;28;20029;-44
2022/06/21 10:40:58;;;;;;;9.65;3.88;;;;;;;;;;5024858;28;20474;-44
2022/06/21 10:43:48;;;;;;;11.82;4.03;;;;;;;;;;5023817;28;20545;-44
2022/06/21 10:46:17;;;;;;;16.27;4.18;;;;;;;;;;5027842;28;20037;-47
2022/06/21 10:49:10;;;;;;;10.40;3.53;;;;;;;;;;5027899;28;20041;-44
2022/06/21 10:51:57;;;;;;;14.40;3.70;;;;;;;;;;5029957;28;20041;-47
2022/06/21 10:55:06;;;;;;;16.60;3.80;;;;;;;;;;5021593;28;20132;-44
2022/06/21 10:57:40;;;;;;;14.25;3.85;;;;;;;;;;5024117;28;20042;-44
2022/06/21 11:03:37;;;;;;;17.52;3.85;;;;;;;;;;5025847;28;20131;-44
2022/06/21 11:06:33;;;;;;;17.02;4.00;;;;;;;;;;5032642;28;20167;-47
2022/06/21 11:09:19;;;;;;;21.77;3.95;;;;;;;;;;5029528;28;20034;-44
2022/06/21 11:15:23;;;;;;;10.88;3.80;;;;;;;;;;5030109;28;20061;-44
2022/06/21 11:18:07;;;;;;;13.93;3.88;;;;;;;;;;4988715;28;20081;-47
2022/06/21 11:20:50;;;;;;;13.70;4.15;;;;;;;;;;4973726;28;20130;-44
2022/06/21 11:23:40;;;;;;;10.32;3.33;;;;;;;;;;4988619;28;20034;-45
2022/06/21 11:26:33;;;;;;;11.53;4.00;;;;;;;;;;4992976;28;20029;-45
2022/06/21 11:29:36;;;;;;;11.48;3.65;;;;;;;;;;4994506;28;20080;-41
2022/06/21 11:32:12;;;;;;;15.07;4.07;;;;;;;;;;4992335;28;20032;-42
2022/06/21 11:34:58;;;;;;;8.52;3.10;;;;;;;;;;4986120;28;20042;-42
2022/06/21 11:37:42;;;;;;;10.45;3.92;;;;;;;;;;4985718;28;20054;-41
2022/06/21 11:40:33;;;;;;;18.40;4.03;;;;;;;;;;4984770;28;20038;-42
2022/06/21 11:42:59;;;;;;;12.55;4.15;;;;;;;;;;4986763;28;20854;-42
2022/06/21 11:45:32;;;;;;;20.95;4.20;;;;;;;;;;4985569;28;20062;-47
2022/06/21 11:48:28;;;;;;;15.48;4.25;;;;;;;;;;4986165;28;20096;-43
2022/06/21 11:51:02;;;;;;;25.40;4.50;;;;;;;;;;4986040;28;20102;-42
2022/06/21 11:53:55;;;;;;;12.32;3.95;;;;;;;;;;5009891;28;20042;-41
2022/06/21 11:56:50;;;;;;;16.55;4.00;;;;;;;;;;5027101;28;20037;-41
2022/06/21 11:59:18;;;;;;;15.48;3.83;;;;;;;;;;5031299;28;20052;-43
2022/06/21 12:02:01;;;;;;;13.55;4.03;;;;;;;;;;5028396;28;20032;-45
2022/06/21 12:04:35;;;;;;;11.43;3.63;;;;;;;;;;5030193;28;20050;-42
2022/06/21 12:07:26;;;;;;;12.40;3.70;;;;;;;;;;5029635;28;20050;-43
2022/06/21 12:10:02;;;;;;;9.20;3.90;;;;;;;;;;5026232;28;20045;-43
2022/06/21 12:12:41;;;;;;;9.43;3.40;;;;;;;;;;5026272;28;20541;-45
2022/06/21 12:15:30;;;;;;;15.40;4.22;;;;;;;;;;5025953;28;20116;-42
2022/06/21 12:18:02;;;;;;;19.77;4.20;;;;;;;;;;5029081;28;20079;-42
2022/06/21 12:20:31;;;;;;;15.20;4.00;;;;;;;;;;5029633;28;20769;-44
2022/06/21 12:23:09;;;;;;;19.45;4.00;;;;;;;;;;5029629;28;20034;-41
2022/06/21 12:25:35;;;;;;;10.90;4.10;;;;;;;;;;5027622;28;20397;-42
2022/06/21 12:28:01;;;;;;;13.10;4.47;;;;;;;;;;5031147;28;20025;-43
2022/06/21 12:30:30;;;;;;;16.38;4.82;;;;;;;;;;5029058;28;20036;-41
2022/06/21 12:33:01;;;;;;;15.90;5.32;;;;;;;;;;5030633;28;20059;-43
2022/06/21 12:35:38;;;;;;;16.38;5.72;;;;;;;;;;5031994;28;29849;-41
2022/06/21 12:38:06;;;;;;;18.10;5.55;;;;;;;;;;5034298;28;20061;-45
2022/06/21 12:40:41;;;;;;;16.15;5.57;;;;;;;;;;5025236;28;20021;-42
2022/06/21 12:43:21;;;;;;;14.55;5.68;;;;;;;;;;5029646;28;20021;-42
2022/06/21 12:45:47;;;;;;;14.43;5.05;;;;;;;;;;5030950;28;20709;-43
2022/06/21 12:48:29;;;;;;;14.00;5.45;;;;;;;;;;5031367;28;20052;-44
2022/06/21 12:51:01;;;;;;;12.30;5.28;;;;;;;;;;5035042;28;20052;-44
2022/06/21 12:53:40;;;;;;;17.77;6.53;;;;;;;;;;5030638;28;20066;-43
2022/06/21 12:56:24;;;;;;;22.60;6.30;;;;;;;;;;5027221;28;20550;-44
2022/06/21 12:59:09;;;;;;;21.52;5.72;;;;;;;;;;5031826;28;20512;-43
2022/06/21 13:01:42;;;;;;;31.33;6.88;;;;;;;;;;5031053;28;20505;-45
2022/06/21 13:04:32;;;;;;;20.08;5.95;;;;;;;;;;5032098;28;20029;-43
2022/06/21 13:07:22;;;;;;;18.95;6.93;;;;;;;;;;5033833;28;20049;-48
2022/06/21 13:10:20;;;;;;;24.35;7.38;;;;;;;;;;5024477;28;20057;-43
2022/06/21 13:13:17;;;;;;;23.98;7.15;;;;;;;;;;5027892;28;20387;-43
2022/06/21 13:15:53;;;;;;;31.52;6.72;;;;;;;;;;5034105;28;20022;-43
2022/06/21 13:18:37;;;;;;;25.00;7.15;;;;;;;;;;5028164;28;20037;-43
2022/06/21 13:21:30;;;;;;;18.50;6.68;;;;;;;;;;5028778;28;20454;-43
2022/06/21 13:24:14;;;;;;;41.72;7.45;;;;;;;;;;5028181;28;20179;-43
2022/06/21 13:26:59;;;;;;;21.05;7.05;;;;;;;;;;5029441;28;20099;-43
2022/06/21 13:29:36;;;;;;;23.67;6.20;;;;;;;;;;5023768;28;20144;-44
2022/06/21 13:32:07;;;;;;;27.25;7.43;;;;;;;;;;5032539;28;20068;-43
2022/06/21 13:34:40;;;;;;;21.05;6.47;;;;;;;;;;5029289;28;20032;-44
2022/06/21 13:37:23;;;;;;;32.63;7.18;;;;;;;;;;5025314;28;20080;-44
2022/06/21 13:40:07;;;;;;;22.30;6.63;;;;;;;;;;5026901;28;20041;-43
2022/06/21 13:42:37;;;;;;;24.55;7.35;;;;;;;;;;5029296;28;20033;-43
2022/06/21 13:45:32;;;;;;;22.45;6.90;;;;;;;;;;5031513;28;20041;-48
2022/06/21 13:48:05;;;;;;;22.13;7.03;;;;;;;;;;5024576;28;20030;-43
2022/06/21 13:50:44;;;;;;;17.63;6.47;;;;;;;;;;5031550;28;20037;-44
2022/06/21 13:53:26;;;;;;;25.08;6.57;;;;;;;;;;5035319;28;20396;-44
2022/06/21 13:56:14;;;;;;;23.42;7.18;;;;;;;;;;5034776;28;20045;-44
2022/06/21 13:58:48;;;;;;;20.48;7.00;;;;;;;;;;5031561;28;20033;-44
2022/06/21 14:01:29;;;;;;;29.88;7.45;;;;;;;;;;5030433;28;20367;-44
2022/06/21 14:04:08;;;;;;;25.25;6.95;;;;;;;;;;5027403;28;20052;-47
2022/06/21 14:06:45;;;;;;;23.67;6.55;;;;;;;;;;5030028;28;20017;-44
2022/06/21 14:09:34;;;;;;;21.13;7.55;;;;;;;;;;5031669;28;20026;-47
2022/06/21 14:12:09;;;;;;;22.13;6.75;;;;;;;;;;5033738;28;20498;-45
2022/06/21 14:14:46;;;;;;;23.02;6.93;;;;;;;;;;5036841;28;20041;-43
2022/06/21 14:17:27;;;;;;;27.02;7.03;;;;;;;;;;5029066;28;20043;-45
2022/06/21 14:20:20;;;;;;;27.35;7.57;;;;;;;;;;5033758;28;20087;-45
2022/06/21 14:22:51;;;;;;;26.40;8.40;;;;;;;;;;5027478;28;20478;-43
2022/06/21 14:25:23;;;;;;;23.90;6.97;;;;;;;;;;5032857;28;20044;-44
2022/06/21 14:27:53;;;;;;;22.17;7.30;;;;;;;;;;5030722;28;20041;-42
2022/06/21 14:30:28;;;;;;;24.00;7.82;;;;;;;;;;5027053;28;20026;-44
2022/06/21 14:33:00;;;;;;;25.98;8.18;;;;;;;;;;5028298;28;20029;-45
2022/06/21 14:35:42;;;;;;;22.48;7.05;;;;;;;;;;5032729;28;20052;-44
2022/06/21 14:38:30;;;;;;;27.42;7.43;;;;;;;;;;5026432;28;20492;-43
2022/06/21 14:41:04;;;;;;;20.88;7.40;;;;;;;;;;5030531;28;20049;-45
2022/06/21 14:43:46;;;;;;;30.55;7.28;;;;;;;;;;5029761;28;20025;-43
2022/06/21 14:46:27;;;;;;;27.25;7.32;;;;;;;;;;5027979;28;20061;-43
2022/06/21 14:49:30;;;;;;;28.20;7.55;;;;;;;;;;5030035;28;20086;-44
2022/06/21 14:52:33;;;;;;;28.27;7.57;;;;;;;;;;5027970;28;20041;-43
2022/06/21 14:55:31;;;;;;;26.38;7.72;;;;;;;;;;5029116;28;20053;-44
2022/06/21 14:58:06;;;;;;;16.88;6.82;;;;;;;;;;5024321;28;20040;-43
2022/06/21 15:00:45;;;;;;;26.83;7.75;;;;;;;;;;5024973;28;20053;-43
2022/06/21 15:03:23;;;;;;;27.25;7.28;;;;;;;;;;5033619;28;20059;-44
2022/06/21 15:05:59;;;;;;;18.05;6.70;;;;;;;;;;5029285;28;20118;-44
2022/06/21 15:08:24;;;;;;;17.80;6.30;;;;;;;;;;5025387;28;20037;-43
2022/06/21 15:11:04;;;;;;;21.77;7.80;;;;;;;;;;5028364;28;20056;-44
2022/06/21 15:13:44;;;;;;;24.10;7.05;;;;;;;;;;5026880;28;20114;-43
2022/06/21 15:16:22;;;;;;;22.13;7.43;;;;;;;;;;5024525;28;20037;-43
2022/06/21 15:18:55;;;;;;;28.63;6.28;;;;;;;;;;5023550;28;20025;-43
2022/06/21 15:21:28;;;;;;;17.92;6.53;;;;;;;;;;5028484;28;20471;-43
2022/06/21 15:24:09;;;;;;;27.15;6.88;;;;;;;;;;5024134;28;20036;-44
2022/06/21 15:26:48;;;;;;;16.27;5.90;;;;;;;;;;5025793;28;20037;-43
2022/06/21 15:29:32;;;;;;;24.30;6.38;;;;;;;;;;5029540;28;20633;-43
2022/06/21 15:32:10;;;;;;;24.88;7.28;;;;;;;;;;5028720;28;20044;-43
2022/06/21 15:34:43;;;;;;;22.63;6.57;;;;;;;;;;5024232;28;20025;-46
2022/06/21 15:37:22;;;;;;;16.83;5.65;;;;;;;;;;5023969;28;20052;-44
2022/06/21 15:39:52;;;;;;;21.75;6.07;;;;;;;;;;5031953;28;20496;-44
2022/06/21 15:42:30;;;;;;;20.48;5.20;;;;;;;;;;5023281;28;20930;-43
2022/06/21 15:45:00;;;;;;;13.63;5.03;;;;;;;;;;5023019;28;20037;-43
2022/06/21 15:50:39;;;;;;;21.50;5.75;;;;;;;;;;5033606;28;19947;-43
2022/06/21 15:53:36;;;;;;;13.48;5.43;;;;;;;;;;5025390;28;20111;-44
2022/06/21 15:56:20;;;;;;;19.45;5.25;;;;;;;;;;5029739;28;20860;-43
2022/06/21 15:59:00;;;;;;;16.15;4.63;;;;;;;;;;5026091;28;20087;-43
2022/06/21 16:01:36;;;;;;;21.13;5.15;;;;;;;;;;5020822;28;20037;-43